Latest Weather Observations for Tewantin

IDQ60901

Issued at 8:01 am EST Friday 29 April 2016 (issued every 10 minutes, with the page automatically refreshed every 10 minutes)

About weather observations | Map of Brisbane area stations | Latest observations for Brisbane area | Other Formats
Station Details ID: 040908 Name: TEWANTIN RSL PARK Lat: -26.39 Lon: 153.04 Height: 6.4 m
Data from the previous 72 hours. | See also: Recent months at Tewantin
Date/Time
EST
Tmp

°C
App
Tmp
°C
Dew
Point
°C
Rel
Hum
%
Delta-T

°C
Wind Press
QNH
hPa
Press
MSL
hPa
Rain
since
9 am
mm
Dir
 
Spd
km/h
Gust
km/h
Spd
kts
Gust
kts
29/08:00am 20.9 22.9 20.7 99 0.1 SSW 11 15 6 8 1022.9 1022.9 5.6
29/07:30am 20.2 21.8 20.0 99 0.1 S 11 17 6 9 1022.8 1022.8 5.4
29/07:00am 20.1 22.1 19.9 99 0.1 S 9 15 5 8 1022.6 1022.6 4.8
29/06:30am 20.1 21.7 19.9 99 0.1 S 11 17 6 9 1022.2 1022.2 4.2
29/06:00am 20.0 22.3 19.8 99 0.1 S 7 13 4 7 1022.1 1022.1 4.0
29/05:30am 19.9 21.4 19.7 99 0.1 S 11 15 6 8 1021.7 1021.7 4.0
29/05:00am 19.9 21.4 19.7 99 0.1 SSW 11 15 6 8 1021.6 1021.6 4.0
29/04:30am 20.0 21.5 19.8 99 0.1 SSW 11 17 6 9 1021.3 1021.3 4.0
29/04:00am 19.9 21.4 19.7 99 0.1 SSW 11 15 6 8 1021.3 1021.3 4.0
29/03:30am 19.8 21.6 19.6 99 0.1 S 9 15 5 8 1021.2 1021.2 3.8
29/03:00am 19.7 21.1 19.5 99 0.1 SSW 11 15 6 8 1021.3 1021.3 3.8
29/02:30am 20.0 21.9 19.8 99 0.1 SSW 9 13 5 7 1021.4 1021.4 3.8
29/02:00am 19.8 21.6 19.6 99 0.1 S 9 17 5 9 1021.9 1021.9 3.8
29/01:30am 19.9 22.1 19.6 98 0.2 SSW 7 11 4 6 1021.8 1021.8 3.8
29/01:00am 20.3 21.8 19.0 92 0.8 SSW 9 13 5 7 1021.9 1021.9 0.8
29/12:30am 20.3 21.8 19.0 92 0.8 SSW 9 13 5 7 1022.1 1022.1 0.8
29/12:00am 20.3 21.8 19.0 92 0.8 SSW 9 13 5 7 1022.3 1022.3 0.8
 
Date/Time
EST
Tmp

°C
App
Tmp
°C
Dew
Point
°C
Rel
Hum
%
Delta-T

°C
Wind Press
QNH
hPa
Press
MSL
hPa
Rain
since
9 am
mm
Dir
 
Spd
km/h
Gust
km/h
Spd
kts
Gust
kts
28/11:30pm 20.2 21.7 18.9 92 0.8 SSW 9 13 5 7 1022.5 1022.5 0.8
28/11:00pm 19.8 22.4 18.5 92 0.8 SW 2 7 1 4 1022.8 1022.8 0.8
28/10:30pm 20.0 22.0 18.7 92 0.8 SSW 6 9 3 5 1022.9 1022.9 0.8
28/10:00pm 20.1 22.0 18.6 91 0.9 SSW 6 9 3 5 1023.1 1023.1 0.8
28/09:30pm 20.2 22.6 18.7 91 0.9 SSW 4 7 2 4 1023.1 1023.1 0.8
28/09:00pm 20.5 22.5 18.8 90 1.1 SW 6 9 3 5 1023.0 1023.0 0.8
28/08:30pm 20.7 22.9 19.2 91 0.9 SW 6 7 3 4 1023.0 1023.0 0.8
28/08:00pm 21.2 23.4 19.1 88 1.3 SSW 6 9 3 5 1022.8 1022.8 0.8
28/07:30pm 21.4 23.6 19.7 90 1.1 SSW 7 11 4 6 1022.7 1022.7 0.8
28/07:00pm 21.5 23.3 19.6 89 1.2 S 9 13 5 7 1022.6 1022.6 0.8
28/06:30pm 21.7 23.4 19.4 87 1.5 SSW 9 13 5 7 1022.3 1022.3 0.8
28/06:00pm 22.2 24.3 19.4 84 1.8 SSW 7 11 4 6 1022.1 1022.1 0.8
28/05:30pm 22.4 24.3 19.0 81 2.2 S 7 11 4 6 1021.9 1021.9 0.8
28/05:00pm 23.9 24.7 18.1 70 3.6 ESE 11 22 6 12 1021.7 1021.7 0.8
28/04:30pm 22.3 24.6 19.8 86 1.6 SSW 7 13 4 7 1021.3 1021.3 0.8
28/04:00pm 23.1 25.5 20.1 83 1.9 SSE 7 13 4 7 1021.3 1021.3 0.8
28/03:30pm 22.7 25.1 20.0 85 1.7 ESE 7 11 4 6 1021.1 1021.1 0.8
28/03:00pm 23.7 24.9 19.0 75 3.0 NE 11 17 6 9 1021.0 1021.0 0.6
28/02:30pm 25.0 25.5 18.4 66 4.2 ESE 13 20 7 11 1020.9 1020.9 0.6
28/02:00pm 25.2 25.6 18.9 68 4.0 E 15 26 8 14 1020.8 1020.8 0.6
28/01:30pm 23.0 23.6 18.5 76 2.8 E 13 22 7 12 1021.0 1021.0 0.6
28/01:00pm 25.6 25.3 18.3 64 4.6 ESE 17 24 9 13 1021.1 1021.1 0.2
28/12:30pm 24.2 24.3 18.4 70 3.7 ESE 15 28 8 15 1021.4 1021.4 0.2
28/12:00pm 25.6 25.2 18.8 66 4.3 E 19 30 10 16 1021.8 1021.8 0.2
28/11:30am 25.6 25.3 18.3 64 4.6 ESE 17 28 9 15 1022.1 1022.1 0.2
28/11:00am 25.4 25.0 18.1 64 4.6 ESE 17 28 9 15 1022.5 1022.5 0.0
28/10:30am 24.6 24.8 18.5 69 3.9 E 15 24 8 13 1022.9 1022.9 0.0
28/10:00am 24.4 24.0 19.0 72 3.4 ESE 19 28 10 15 1023.0 1023.0 0.0
28/09:30am 24.5 25.0 20.0 76 2.9 ESE 17 24 9 13 1023.0 1023.0 0.0
28/09:00am 22.5 25.2 21.3 93 0.8 SSW 9 13 5 7 1023.0 1023.0 2.2
28/08:30am 21.3 23.7 20.8 97 0.3 SSW 9 13 5 7 1022.9 1022.9 2.2
28/08:00am 20.7 22.9 20.5 99 0.1 SSW 9 17 5 9 1022.6 1022.6 2.2
28/07:30am 19.9 22.7 19.7 99 0.1 S 4 9 2 5 1022.5 1022.5 2.0
28/07:00am 19.5 21.6 19.3 99 0.1 S 7 9 4 5 1022.0 1022.0 2.0
28/06:30am 19.3 20.9 19.1 99 0.1 S 9 13 5 7 1021.8 1021.8 2.0
28/06:00am 19.2 20.7 19.0 99 0.1 S 9 15 5 8 1021.7 1021.7 2.0
28/05:30am 19.1 20.6 18.9 99 0.1 S 9 15 5 8 1021.6 1021.6 2.0
28/05:00am 19.2 20.4 19.0 99 0.1 S 11 17 6 9 1021.3 1021.3 2.0
28/04:30am 19.2 20.2 18.7 97 0.3 S 11 17 6 9 1021.3 1021.3 1.8
28/04:00am 19.1 20.5 18.6 97 0.3 S 9 13 5 7 1021.3 1021.3 1.8
28/03:30am 19.0 20.3 18.5 97 0.3 S 9 13 5 7 1021.1 1021.1 1.8
28/03:00am 19.5 20.2 18.8 96 0.4 S 13 19 7 10 1021.1 1021.1 1.8
28/02:30am 19.4 20.8 18.7 96 0.4 SSW 9 15 5 8 1021.3 1021.3 1.8
28/02:00am 19.3 20.3 18.6 96 0.4 SSW 11 15 6 8 1021.5 1021.5 1.8
28/01:30am 19.4 20.8 18.7 96 0.4 SSW 9 15 5 8 1021.6 1021.6 1.8
28/01:00am 19.5 20.9 18.7 95 0.5 SSW 9 15 5 8 1021.9 1021.9 1.8
28/12:30am 19.7 20.8 18.9 95 0.5 S 11 15 6 8 1021.8 1021.8 1.8
28/12:00am 19.9 21.1 19.1 95 0.5 SSW 11 17 6 9 1021.9 1021.9 1.8
 
Date/Time
EST
Tmp

°C
App
Tmp
°C
Dew
Point
°C
Rel
Hum
%
Delta-T

°C
Wind Press
QNH
hPa
Press
MSL
hPa
Rain
since
9 am
mm
Dir
 
Spd
km/h
Gust
km/h
Spd
kts
Gust
kts
27/11:30pm 20.0 21.6 19.2 95 0.5 SSW 9 15 5 8 1022.1 1022.1 1.8
27/11:00pm 20.0 21.7 19.3 96 0.4 SSW 9 13 5 7 1022.4 1022.4 1.8
27/10:30pm 20.1 22.2 19.3 95 0.5 SSW 7 13 4 7 1022.4 1022.4 1.8
27/10:00pm 20.2 21.2 19.5 96 0.4 SSW 13 17 7 9 1022.4 1022.4 1.8
27/09:30pm 20.4 21.7 19.4 94 0.6 SSW 11 15 6 8 1022.5 1022.5 1.8
27/09:00pm 20.6 21.6 19.4 93 0.8 SSW 13 19 7 10 1022.5 1022.5 1.8
27/08:30pm 20.7 22.4 19.4 92 0.8 SSW 9 13 5 7 1022.4 1022.4 1.8
27/08:00pm 20.8 22.1 19.3 91 0.9 S 11 17 6 9 1022.3 1022.3 1.8
27/07:30pm 21.3 22.3 19.4 89 1.2 S 13 19 7 10 1022.2 1022.2 1.8
27/07:00pm 21.7 23.0 19.4 87 1.5 S 11 19 6 10 1021.9 1021.9 1.8
27/06:30pm 23.0 23.8 17.2 70 3.6 SSE 9 15 5 8 1021.6 1021.6 1.8
27/06:00pm 22.9 23.5 16.7 68 3.8 SE 9 15 5 8 1021.4 1021.4 1.8
27/05:30pm 23.1 23.4 16.9 68 3.8 SE 11 17 6 9 1021.1 1021.1 1.8
27/05:00pm 23.5 23.3 16.8 66 4.1 SE 13 22 7 12 1020.9 1020.9 1.8
27/04:30pm 24.0 23.8 16.8 64 4.4 SE 13 22 7 12 1020.8 1020.8 1.8
27/04:00pm 24.1 23.1 16.6 63 4.6 ESE 17 28 9 15 1020.6 1020.6 1.8
27/03:30pm 24.1 23.8 18.3 70 3.7 SE 17 28 9 15 1020.3 1020.3 1.8
27/03:00pm 23.8 24.2 18.2 71 3.5 SE 13 26 7 14 1020.3 1020.3 1.8
27/02:30pm 23.6 25.4 20.3 82 2.1 SSE 11 20 6 11 1020.3 1020.3 1.8
27/02:00pm 22.9 24.4 19.7 82 2.0 SSE 11 24 6 13 1020.5 1020.5 1.8
27/01:30pm 22.9 24.3 20.4 86 1.6 SSE 13 24 7 13 1020.5 1020.5 1.8
27/01:00pm 22.0 23.7 21.0 94 0.7 S 13 26 7 14 1020.8 1020.8 1.8
27/12:30pm 23.2 24.2 21.1 88 1.4 S 17 26 9 14 1021.2 1021.2 1.6
27/12:00pm 23.4 23.8 18.9 76 2.8 SE 15 26 8 14 1021.7 1021.7 1.6
27/11:30am 22.7 22.6 19.5 82 2.0 SE 19 30 10 16 1022.1 1022.1 1.6
27/11:00am 22.4 25.0 21.2 93 0.8 SSE 9 17 5 9 1022.5 1022.5 1.6
27/10:30am 21.2 23.5 20.7 97 0.3 ESE 9 15 5 8 1023.1 1023.1 1.0
27/10:00am 20.8 20.3 20.0 95 0.5 E 22 33 12 18 1023.5 1023.5 0.6
27/09:30am 22.6 21.0 16.6 69 3.7 SE 20 41 11 22 1023.3 1023.3 0.0
27/09:00am 23.7 22.1 16.5 64 4.4 SE 20 35 11 19 1023.1 1023.1 2.4
27/08:30am 23.7 22.3 16.5 64 4.4 SE 19 30 10 16 1022.9 1022.9 2.4
27/08:00am 24.1 22.2 16.6 63 4.6 SE 22 39 12 21 1022.8 1022.8 2.4
27/07:30am 23.8 22.5 16.8 65 4.3 ESE 19 28 10 15 1022.5 1022.5 2.4
27/07:00am 23.1 21.8 16.9 68 3.8 SE 19 28 10 15 1022.2 1022.2 2.4
27/06:30am 22.7 21.6 17.4 72 3.3 SE 19 32 10 17 1021.9 1021.9 2.4
27/06:00am 22.5 22.4 17.8 75 2.9 SE 15 30 8 16 1021.7 1021.7 2.4
27/05:30am 22.0 20.3 17.2 74 2.9 ESE 22 33 12 18 1021.4 1021.4 2.4
27/05:00am 22.1 20.6 17.7 76 2.7 ESE 22 35 12 19 1021.3 1021.3 2.4
27/04:30am 22.0 20.2 17.8 77 2.6 ESE 24 35 13 19 1021.3 1021.3 2.4
27/04:00am 22.8 21.2 16.6 68 3.8 SE 20 37 11 20 1021.1 1021.1 2.4
27/03:30am 22.2 22.4 18.6 80 2.3 SE 15 26 8 14 1021.0 1021.0 2.4
27/03:00am 21.2 20.9 17.4 79 2.3 SSE 15 20 8 11 1021.3 1021.3 2.4
27/02:30am 22.1 21.2 16.8 72 3.2 SE 17 33 9 18 1021.5 1021.5 2.4
27/02:00am 22.2 22.0 17.6 75 2.8 SE 15 24 8 13 1021.8 1021.8 2.4
27/01:30am 22.1 21.6 17.9 77 2.6 SE 17 28 9 15 1021.9 1021.9 2.4
27/01:00am 20.8 22.2 19.5 92 0.8 SSE 11 17 6 9 1022.2 1022.2 2.4
27/12:30am 20.8 20.2 18.9 89 1.2 SE 20 37 11 20 1022.4 1022.4 2.4
27/12:00am 21.3 22.1 19.0 87 1.4 SE 13 22 7 12 1022.5 1022.5 2.2
 
Date/Time
EST
Tmp

°C
App
Tmp
°C
Dew
Point
°C
Rel
Hum
%
Delta-T

°C
Wind Press
QNH
hPa
Press
MSL
hPa
Rain
since
9 am
mm
Dir
 
Spd
km/h
Gust
km/h
Spd
kts
Gust
kts
26/11:30pm 21.5 22.4 19.2 87 1.5 SSE 13 22 7 12 1022.7 1022.7 2.0
26/11:00pm 20.7 21.1 19.0 90 1.1 SSE 15 28 8 15 1022.9 1022.9 2.0
26/10:30pm 21.3 21.6 18.7 85 1.6 SSE 15 30 8 16 1023.0 1023.0 1.0
26/10:00pm 21.4 21.3 18.8 85 1.6 SE 17 28 9 15 1023.2 1023.2 1.0
26/09:30pm 21.3 21.2 18.7 85 1.6 SSE 17 32 9 17 1023.2 1023.2 1.0
26/09:00pm 22.3 22.5 17.7 75 2.8 SE 13 28 7 15 1023.3 1023.3 0.4
26/08:30pm 21.0 20.0 18.8 87 1.4 SE 22 33 12 18 1023.5 1023.5 0.4
26/08:00pm 22.0 21.5 16.9 73 3.1 SSE 15 24 8 13 1023.2 1023.2 0.2
26/07:30pm 22.1 22.0 18.7 81 2.1 ESE 17 30 9 16 1023.1 1023.1 0.2
26/07:00pm 23.4 23.0 17.2 68 3.8 SSE 15 30 8 16 1022.7 1022.7 0.0
26/06:30pm 23.3 22.3 16.6 66 4.1 SSE 17 26 9 14 1022.4 1022.4 0.0
26/06:00pm 23.3 22.3 16.6 66 4.1 SSE 17 32 9 17 1022.2 1022.2 0.0
26/05:30pm 23.3 22.4 15.9 63 4.5 SSE 15 26 8 14 1022.1 1022.1 0.0
26/05:00pm 23.5 22.1 15.5 60 4.8 SSE 17 30 9 16 1021.9 1021.9 0.0
26/04:30pm 23.8 21.8 15.0 57 5.3 SSE 19 37 10 20 1021.8 1021.8 0.0
26/04:00pm 24.0 22.5 15.2 58 5.3 SSE 17 30 9 16 1021.7 1021.7 0.0
26/03:30pm 24.2 21.6 14.9 56 5.5 SSE 22 43 12 23 1021.5 1021.5 0.0
26/03:00pm 24.7 22.7 15.6 57 5.5 SSE 20 39 11 21 1021.3 1021.3 0.0
26/02:30pm 24.7 22.7 15.6 57 5.5 SSE 20 39 11 21 1021.3 1021.3 0.0
26/02:00pm 25.3 23.8 16.7 59 5.3 SE 20 35 11 19 1021.3 1021.3 0.0
26/01:30pm 24.7 22.9 15.9 58 5.3 SE 20 39 11 21 1021.5 1021.5 0.0
26/01:00pm 24.9 21.8 15.5 56 5.7 SE 26 44 14 24 1021.8 1021.8 0.0
26/12:30pm 25.1 22.5 14.9 53 6.1 SE 22 44 12 24 1021.8 1021.8 0.0
26/12:12pm 24.7 20.9 14.8 54 5.9 SE 28 48 15 26 1022.2 1022.2 0.0
26/12:00pm 25.2 22.3 15.2 54 6.0 SE 24 44 13 24 1022.3 1022.3 0.0
26/11:30am 25.3 22.6 15.6 55 5.9 SE 24 41 13 22 1022.6 1022.6 0.0
26/11:00am 25.4 22.6 15.4 54 6.0 SE 24 39 13 21 1022.9 1022.9 0.0
26/10:30am 25.1 22.0 15.7 56 5.7 SE 26 41 14 22 1023.1 1023.1 0.0
26/10:00am 25.1 21.7 15.7 56 5.7 SE 28 48 15 26 1023.0 1023.0 0.0
26/09:58am 24.9 21.6 16.1 58 5.4 SE 28 48 15 26 1023.1 1023.1 0.0
26/09:30am 23.1 22.1 17.6 71 3.4 SSE 19 30 10 16 1022.9 1022.9 0.0
26/09:00am 24.2 23.1 17.2 65 4.3 SSE 19 28 10 15 1022.7 1022.7 5.8
26/08:30am 24.4 23.0 16.6 61 4.8 SSE 19 33 10 18 1022.6 1022.6 5.8

Latest Capital City Observations: Canberra | Sydney | Melbourne | Brisbane | Adelaide | Perth | Hobart | Darwin

Other Formats:

Comma delimited format used in spreadsheet applications
http://www.bom.gov.au/fwo/IDQ60901/IDQ60901.94570.axf

JavaScript Object Notation format (JSON) in row-major order
http://www.bom.gov.au/fwo/IDQ60901/IDQ60901.94570.json